createdAt,value
2019-04-26T00:01:39.675Z,2.25
2019-04-26T00:04:10.196Z,2.85
2019-04-26T00:06:39.708Z,2.15
2019-04-26T00:09:22.919Z,2.05
2019-04-26T00:12:03.222Z,2.45
2019-04-26T00:14:59.608Z,2.50
2019-04-26T00:17:42.920Z,2.15
2019-04-26T00:20:12.922Z,2.10
2019-04-26T00:22:42.000Z,2.42
2019-04-26T00:25:11.416Z,2.55
2019-04-26T00:27:41.392Z,2.30
2019-04-26T00:30:11.802Z,2.40
2019-04-26T00:32:41.447Z,2.75
2019-04-26T00:35:11.610Z,2.22
2019-04-26T00:37:41.360Z,2.65
2019-04-26T00:40:11.685Z,2.87
2019-04-26T00:42:41.895Z,2.77
2019-04-26T00:45:10.982Z,2.62
2019-04-26T00:48:16.943Z,2.60
2019-04-26T00:50:47.554Z,2.47
2019-04-26T00:53:17.929Z,2.75
2019-04-26T00:55:48.737Z,2.70
2019-04-26T00:58:18.705Z,3.15
2019-04-26T01:00:48.705Z,2.70
2019-04-26T01:03:18.534Z,2.80
2019-04-26T01:05:59.627Z,2.85
2019-04-26T01:08:19.210Z,3.00
2019-04-26T01:10:48.407Z,3.12
2019-04-26T01:13:17.913Z,3.25
2019-04-26T01:15:47.137Z,3.05
2019-04-26T01:18:16.865Z,3.22
2019-04-26T01:20:48.582Z,2.95
2019-04-26T01:23:20.943Z,3.20
2019-04-26T01:26:06.791Z,2.77
2019-04-26T01:28:40.368Z,3.20
2019-04-26T01:31:10.853Z,3.10
2019-04-26T01:33:41.135Z,3.08
2019-04-26T01:36:13.416Z,3.45
2019-04-26T01:38:41.018Z,3.17
2019-04-26T01:41:16.013Z,3.40
2019-04-26T01:43:59.001Z,3.50
2019-04-26T01:46:35.120Z,3.62
2019-04-26T01:49:08.407Z,3.20
2019-04-26T01:51:43.112Z,3.55
2019-04-26T01:54:14.751Z,3.40
2019-04-26T01:56:43.956Z,3.33
2019-04-26T01:59:15.917Z,3.17
2019-04-26T02:02:12.619Z,3.25
2019-04-26T02:04:44.608Z,3.98
2019-04-26T02:07:15.976Z,3.20
2019-04-26T02:09:45.157Z,3.52
2019-04-26T02:12:14.121Z,3.47
2019-04-26T02:14:44.096Z,3.70
2019-04-26T02:17:13.060Z,4.00
2019-04-26T02:19:42.052Z,3.90
2019-04-26T02:22:29.953Z,4.10
2019-04-26T02:24:59.439Z,3.70
2019-04-26T02:27:30.357Z,3.65
2019-04-26T02:30:00.485Z,4.00
2019-04-26T02:32:31.376Z,3.98
2019-04-26T02:35:01.902Z,3.77
2019-04-26T02:37:32.759Z,3.95
2019-04-26T02:40:04.520Z,3.92
2019-04-26T02:42:39.116Z,4.00
2019-04-26T02:45:50.769Z,4.03
2019-04-26T02:48:43.969Z,3.50
2019-04-26T02:51:17.949Z,4.28
2019-04-26T02:53:57.199Z,3.90
2019-04-26T02:56:37.724Z,4.25
2019-04-26T02:59:40.570Z,4.20
2019-04-26T03:02:22.240Z,3.92
2019-04-26T03:04:55.943Z,4.15
2019-04-26T03:07:48.179Z,4.17
2019-04-26T03:10:19.781Z,4.87
2019-04-26T03:12:51.720Z,4.65
2019-04-26T03:15:33.926Z,5.12
2019-04-26T03:18:24.304Z,4.17
2019-04-26T03:20:59.437Z,5.00
2019-04-26T03:23:58.194Z,4.72
2019-04-26T03:26:54.300Z,4.50
2019-04-26T03:29:43.727Z,5.70
2019-04-26T03:32:27.410Z,5.78
2019-04-26T03:35:30.649Z,4.60
2019-04-26T03:38:22.012Z,5.47
2019-04-26T03:41:28.266Z,5.30
2019-04-26T03:44:06.805Z,4.75
2019-04-26T03:46:50.397Z,5.40
2019-04-26T03:49:42.030Z,5.15
2019-04-26T03:52:54.443Z,5.17
2019-04-26T03:56:14.233Z,6.08
2019-04-26T03:59:06.342Z,5.47
2019-04-26T04:01:44.118Z,5.70
2019-04-26T04:04:41.636Z,5.67
2019-04-26T04:07:17.111Z,5.15
2019-04-26T04:09:51.435Z,6.12
2019-04-26T04:12:27.042Z,5.70
2019-04-26T04:15:08.258Z,5.80
2019-04-26T04:17:51.568Z,6.03
2019-04-26T04:21:13.822Z,5.87
2019-04-26T04:23:50.237Z,6.05
2019-04-26T04:26:25.952Z,6.20
2019-04-26T04:29:19.169Z,5.78
2019-04-26T04:31:52.697Z,5.95
2019-04-26T04:34:28.844Z,6.37
2019-04-26T04:37:02.072Z,5.50
2019-04-26T04:40:12.340Z,6.30
2019-04-26T04:42:55.300Z,5.72
2019-04-26T04:46:19.034Z,6.03
2019-04-26T04:49:23.546Z,5.97
2019-04-26T04:52:18.974Z,6.33
2019-04-26T04:55:05.148Z,6.08
2019-04-26T04:57:34.742Z,6.25
2019-04-26T05:00:26.900Z,6.03
2019-04-26T05:03:35.660Z,6.67
2019-04-26T05:06:24.744Z,5.75
2019-04-26T05:09:02.383Z,5.70
2019-04-26T05:12:00.353Z,6.12
2019-04-26T05:14:43.698Z,5.62
2019-04-26T05:17:24.871Z,5.72
2019-04-26T05:20:05.218Z,6.35
2019-04-26T05:22:51.219Z,5.92
2019-04-26T05:26:26.280Z,5.40
2019-04-26T05:29:17.437Z,6.42
2019-04-26T05:32:01.015Z,5.85
2019-04-26T05:34:44.457Z,5.90
2019-04-26T05:38:04.305Z,6.22
2019-04-26T05:41:26.785Z,5.83
2019-04-26T05:44:18.127Z,5.95
2019-04-26T05:47:35.736Z,6.10
2019-04-26T05:51:02.202Z,5.97
2019-04-26T05:54:11.716Z,5.60
2019-04-26T05:56:58.372Z,5.50
2019-04-26T05:59:53.449Z,5.62
2019-04-26T06:03:08.311Z,5.70
2019-04-26T06:06:15.023Z,5.83
2019-04-26T06:09:30.859Z,4.95
2019-04-26T06:12:07.460Z,4.47
2019-04-26T06:15:21.412Z,4.00
2019-04-26T06:18:51.797Z,4.70
2019-04-26T06:21:38.395Z,4.92
2019-04-26T06:24:47.061Z,5.90
2019-04-26T06:27:53.036Z,5.15
2019-04-26T06:30:28.925Z,4.50
2019-04-26T06:33:24.746Z,4.87
2019-04-26T06:35:57.277Z,4.67
2019-04-26T06:39:14.480Z,5.03
2019-04-26T06:42:05.679Z,4.35
2019-04-26T06:45:34.173Z,4.00
2019-04-26T06:48:16.012Z,4.35
2019-04-26T06:50:52.496Z,4.37
2019-04-26T06:53:36.820Z,4.55
2019-04-26T06:56:21.868Z,4.50
2019-04-26T06:59:35.517Z,4.75
2019-04-26T07:02:01.011Z,4.65
2019-04-26T07:04:54.257Z,4.50
2019-04-26T07:07:45.248Z,4.47
2019-04-26T07:10:30.536Z,4.80
2019-04-26T07:13:47.065Z,4.72
2019-04-26T07:16:30.177Z,4.72
2019-04-26T07:19:20.157Z,4.90
2019-04-26T07:22:34.574Z,5.00
2019-04-26T07:25:22.006Z,4.45
2019-04-26T07:28:06.086Z,5.17
2019-04-26T07:30:56.916Z,4.72
2019-04-26T07:34:03.504Z,4.35
2019-04-26T07:37:16.075Z,4.15
2019-04-26T07:40:23.479Z,4.97
2019-04-26T07:43:13.302Z,3.98
2019-04-26T07:46:35.430Z,4.45
2019-04-26T07:49:40.152Z,4.20
2019-04-26T07:52:51.957Z,4.20
2019-04-26T07:55:38.094Z,4.05
2019-04-26T07:58:42.968Z,4.10
2019-04-26T08:01:52.887Z,4.00
2019-04-26T08:04:30.878Z,3.58
2019-04-26T08:07:13.251Z,3.67
2019-04-26T08:09:59.476Z,3.37
2019-04-26T08:12:23.292Z,3.70
2019-04-26T08:15:27.591Z,3.95
2019-04-26T08:18:19.876Z,3.92
2019-04-26T08:20:54.741Z,3.65
2019-04-26T08:23:41.059Z,3.90
2019-04-26T08:26:07.706Z,3.58
2019-04-26T08:28:38.988Z,4.47
2019-04-26T08:31:15.504Z,5.22
2019-04-26T08:33:49.727Z,5.78
2019-04-26T08:36:23.280Z,7.08
2019-04-26T08:38:54.432Z,7.80
2019-04-26T08:41:24.906Z,6.17
2019-04-26T08:44:08.591Z,6.55
2019-04-26T08:46:50.354Z,6.00
2019-04-26T08:49:39.964Z,6.67
2019-04-26T08:52:14.497Z,8.38
2019-04-26T08:54:50.932Z,9.08
2019-04-26T08:57:21.004Z,7.42
2019-04-26T08:59:54.813Z,7.22
2019-04-26T09:02:48.889Z,7.05
2019-04-26T09:05:55.172Z,6.78
2019-04-26T09:08:28.112Z,5.62
2019-04-26T09:11:00.673Z,5.62
2019-04-26T09:13:33.328Z,5.97
2019-04-26T09:16:16.344Z,6.47
2019-04-26T09:18:52.472Z,5.62
2019-04-26T09:21:23.541Z,5.45
2019-04-26T09:24:04.505Z,5.78
2019-04-26T09:26:51.640Z,5.60
2019-04-26T09:29:26.386Z,5.92
2019-04-26T09:32:11.835Z,5.17
2019-04-26T09:34:42.784Z,5.70
2019-04-26T09:37:11.998Z,7.78
2019-04-26T09:39:41.972Z,6.50
2019-04-26T09:42:40.914Z,6.37
2019-04-26T09:45:29.710Z,3.95
2019-04-26T09:48:02.881Z,3.90
2019-04-26T09:50:43.852Z,3.60
2019-04-26T09:53:12.794Z,3.85
2019-04-26T09:55:41.740Z,3.30
2019-04-26T09:58:10.755Z,2.70
2019-04-26T10:00:39.742Z,2.58
2019-04-26T10:03:09.379Z,3.17
2019-04-26T10:05:39.528Z,2.37
2019-04-26T10:08:12.644Z,2.52
2019-04-26T10:10:39.305Z,3.15
2019-04-26T10:13:27.351Z,3.05
2019-04-26T10:16:14.074Z,2.58
2019-04-26T10:18:46.923Z,2.25
2019-04-26T10:21:15.948Z,1.90
2019-04-26T10:38:28.565Z,1.60
2019-04-26T10:40:57.499Z,1.65
2019-04-26T10:43:29.251Z,1.70
2019-04-26T10:45:57.225Z,1.50
2019-04-26T10:48:26.227Z,1.07
2019-04-26T10:50:55.346Z,1.00
2019-04-26T10:53:43.807Z,1.50
2019-04-26T10:56:30.945Z,1.25
2019-04-26T10:59:39.927Z,1.30
2019-04-26T11:02:11.835Z,1.30
2019-04-26T11:04:41.440Z,1.27
2019-04-26T11:07:11.601Z,1.25
2019-04-26T11:09:40.573Z,1.62
2019-04-26T11:12:13.222Z,0.98
2019-04-26T11:14:42.248Z,1.27
2019-04-26T11:17:16.214Z,1.20
2019-04-26T11:19:44.199Z,1.47
2019-04-26T11:22:13.195Z,2.20
2019-04-26T11:24:42.228Z,1.72
2019-04-26T11:27:11.473Z,1.70
2019-04-26T11:29:40.536Z,1.70
2019-04-26T11:32:10.176Z,1.77
2019-04-26T11:34:39.376Z,1.92
2019-04-26T11:37:09.151Z,1.50
2019-04-26T11:39:40.420Z,1.60
2019-04-26T11:42:11.834Z,2.20
2019-04-26T11:44:39.608Z,1.72
2019-04-26T11:47:08.715Z,1.85
2019-04-26T11:49:41.574Z,1.85
2019-04-26T11:52:11.872Z,2.65
2019-04-26T11:54:40.780Z,2.55
2019-04-26T11:57:12.018Z,2.47
2019-04-26T11:59:40.496Z,2.30
2019-04-26T12:02:12.378Z,2.50
2019-04-26T12:04:53.850Z,3.45
2019-04-26T12:07:26.652Z,2.02
2019-04-26T12:09:57.364Z,2.80
2019-04-26T12:12:26.454Z,2.52
2019-04-26T12:14:57.824Z,3.17
2019-04-26T12:17:31.198Z,2.60
2019-04-26T12:19:58.467Z,2.45
2019-04-26T12:22:27.488Z,2.77
2019-04-26T12:24:56.528Z,2.62
2019-04-26T12:27:26.475Z,2.95
2019-04-26T12:29:56.480Z,2.40
2019-04-26T12:32:27.549Z,2.33
2019-04-26T12:34:56.569Z,3.10
2019-04-26T12:37:25.534Z,2.70
2019-04-26T12:39:54.654Z,2.75
2019-04-26T12:42:23.714Z,2.33
2019-04-26T12:45:00.965Z,2.42
2019-04-26T12:47:40.146Z,2.20
2019-04-26T12:50:09.604Z,2.40
2019-04-26T12:52:38.451Z,2.37
2019-04-26T12:55:07.455Z,2.50
2019-04-26T12:57:40.341Z,2.05
2019-04-26T13:00:07.325Z,2.33
2019-04-26T13:02:36.439Z,2.67
2019-04-26T13:05:05.478Z,1.80
2019-04-26T13:07:34.576Z,2.20
2019-04-26T13:10:21.115Z,2.20
2019-04-26T13:13:03.149Z,2.42
2019-04-26T13:16:06.307Z,2.70
2019-04-26T13:18:35.302Z,2.90
2019-04-26T13:21:04.566Z,2.92
2019-04-26T13:23:33.645Z,3.00
2019-04-26T13:26:02.814Z,2.45
2019-04-26T13:28:31.845Z,3.33
2019-04-26T13:31:02.461Z,2.40
2019-04-26T13:33:31.670Z,2.12
2019-04-26T13:36:06.265Z,1.60
2019-04-26T13:38:43.608Z,2.27
2019-04-26T13:41:12.235Z,1.07
2019-04-26T13:43:41.452Z,1.00
2019-04-26T13:46:41.472Z,1.45
2019-04-26T13:49:18.133Z,0.70
2019-04-26T13:51:49.339Z,1.10
2019-04-26T13:54:24.330Z,0.88
2019-04-26T13:56:53.970Z,0.78
2019-04-26T13:59:23.058Z,1.02
2019-04-26T14:01:52.703Z,0.80
2019-04-26T14:04:22.293Z,0.80
2019-04-26T14:06:51.635Z,0.95
2019-04-26T14:09:20.599Z,1.12
2019-04-26T14:11:50.152Z,1.05
2019-04-26T14:14:19.312Z,1.70
2019-04-26T14:16:48.484Z,0.80
2019-04-26T14:19:24.924Z,0.98
2019-04-26T14:21:54.142Z,0.85
2019-04-26T14:24:34.780Z,1.00
2019-04-26T14:27:15.120Z,0.82
2019-04-26T14:29:43.440Z,0.90
2019-04-26T14:32:13.974Z,1.10
2019-04-26T14:34:45.267Z,0.88
2019-04-26T14:37:16.575Z,1.10
2019-04-26T14:39:50.956Z,1.27
2019-04-26T14:42:33.175Z,1.40
2019-04-26T14:44:50.430Z,1.35
2019-04-26T14:47:19.392Z,1.27
2019-04-26T14:49:48.677Z,0.90
2019-04-26T14:52:18.089Z,1.10
2019-04-26T14:54:47.597Z,0.95
2019-04-26T14:57:23.741Z,1.30
2019-04-26T14:59:56.709Z,0.80
2019-04-26T15:02:47.459Z,1.07
2019-04-26T15:05:38.243Z,1.12
2019-04-26T15:08:09.615Z,2.15
2019-04-26T15:10:45.752Z,1.57
2019-04-26T15:13:19.913Z,1.95
2019-04-26T15:15:42.232Z,1.80
2019-04-26T15:18:12.270Z,1.90
2019-04-26T15:20:41.405Z,1.95
2019-04-26T15:23:10.336Z,1.80
2019-04-26T15:25:48.413Z,2.33
2019-04-26T15:28:14.562Z,2.17
2019-04-26T15:30:46.888Z,2.20
2019-04-26T15:33:14.915Z,2.62
2019-04-26T15:35:47.310Z,2.33
2019-04-26T15:38:22.873Z,2.00
2019-04-26T15:41:19.779Z,2.30
2019-04-26T15:44:00.503Z,2.40
2019-04-26T15:46:48.410Z,2.30
2019-04-26T15:49:38.278Z,1.70
2019-04-26T15:52:11.243Z,1.60
2019-04-26T15:54:39.944Z,2.00
2019-04-26T15:57:12.089Z,2.15
2019-04-26T15:59:44.233Z,2.55
2019-04-26T16:02:13.248Z,2.12
2019-04-26T16:04:47.465Z,3.27
2019-04-26T16:07:27.022Z,1.92
2019-04-26T16:09:49.363Z,2.00
2019-04-26T16:12:20.313Z,2.35
2019-04-26T16:14:48.562Z,2.12
2019-04-26T16:17:17.771Z,2.17
2019-04-26T16:19:46.967Z,2.37
2019-04-26T16:22:16.140Z,2.45
2019-04-26T16:24:45.215Z,2.17
2019-04-26T16:27:14.329Z,2.60
2019-04-26T16:30:13.188Z,2.55
2019-04-26T16:32:59.226Z,1.75
2019-04-26T16:35:28.424Z,2.22
2019-04-26T16:38:00.149Z,1.85
2019-04-26T16:40:29.466Z,2.17
2019-04-26T16:42:59.672Z,2.08
2019-04-26T16:45:32.802Z,1.95
2019-04-26T16:48:02.296Z,2.05
2019-04-26T16:50:33.528Z,2.10
2019-04-26T16:53:02.037Z,2.37
2019-04-26T16:55:38.006Z,1.95
2019-04-26T16:58:04.537Z,1.27
2019-04-26T17:00:50.288Z,1.32
2019-04-26T17:03:08.043Z,1.25
2019-04-26T17:05:47.563Z,1.70
2019-04-26T17:08:10.182Z,1.27
2019-04-26T17:10:38.028Z,1.20
2019-04-26T17:13:07.327Z,1.52
2019-04-26T17:15:36.543Z,1.62
2019-04-26T17:18:05.606Z,1.17
2019-04-26T17:20:35.019Z,1.35
2019-04-26T17:26:24.367Z,1.30
2019-04-26T17:28:55.579Z,1.17
2019-04-26T17:31:24.171Z,1.27
2019-04-26T17:33:53.188Z,1.60
2019-04-26T17:36:22.168Z,1.10
2019-04-26T17:38:51.170Z,0.98
2019-04-26T17:41:20.171Z,1.62
2019-04-26T17:43:52.023Z,1.42
2019-04-26T17:46:21.467Z,1.10
2019-04-26T17:48:50.915Z,1.20
2019-04-26T17:51:22.879Z,1.27
2019-04-26T17:54:18.513Z,0.98
2019-04-26T17:56:25.624Z,1.00
2019-04-26T17:58:54.795Z,1.25
2019-04-26T18:01:42.083Z,1.27
2019-04-26T18:03:55.733Z,1.25
2019-04-26T18:06:29.868Z,1.02
2019-04-26T18:08:55.374Z,1.07
2019-04-26T18:11:25.127Z,1.02
2019-04-26T18:13:54.483Z,1.42
2019-04-26T18:16:29.191Z,1.55
2019-04-26T18:19:12.675Z,1.02
2019-04-26T18:21:49.535Z,0.98
2019-04-26T18:24:18.313Z,1.00
2019-04-26T18:26:47.212Z,1.17
2019-04-26T18:29:16.584Z,1.22
2019-04-26T18:31:45.540Z,0.85
2019-04-26T18:34:14.513Z,0.88
2019-04-26T18:36:43.590Z,1.10
2019-04-26T18:39:12.798Z,1.00
2019-04-26T18:41:41.812Z,0.72
2019-04-26T18:44:11.570Z,1.17
2019-04-26T18:46:49.254Z,0.90
2019-04-26T18:49:22.614Z,0.90
2019-04-26T18:51:50.106Z,1.10
2019-04-26T18:54:40.715Z,1.10
2019-04-26T18:57:13.286Z,0.80
2019-04-26T18:59:40.407Z,1.07
2019-04-26T19:02:11.540Z,1.00
2019-04-26T19:04:46.958Z,0.90
2019-04-26T19:07:12.106Z,0.85
2019-04-26T19:09:56.806Z,0.90
2019-04-26T19:12:18.441Z,0.98
2019-04-26T19:15:04.462Z,0.75
2019-04-26T19:17:54.979Z,0.68
2019-04-26T19:20:35.232Z,1.00
2019-04-26T19:23:06.543Z,0.98
2019-04-26T19:25:40.546Z,0.90
2019-04-26T19:28:08.161Z,0.80
2019-04-26T19:30:39.983Z,0.62
2019-04-26T19:33:11.527Z,0.75
2019-04-26T19:35:39.399Z,0.70
2019-04-26T19:38:11.987Z,0.55
2019-04-26T19:40:46.365Z,0.60
2019-04-26T19:43:12.439Z,0.80
2019-04-26T19:45:52.025Z,0.70
2019-04-26T19:48:32.335Z,0.65
2019-04-26T19:51:23.735Z,0.88
2019-04-26T19:53:58.704Z,0.30
2019-04-26T19:56:46.727Z,0.80
2019-04-26T19:59:15.670Z,0.57
2019-04-26T20:01:44.757Z,0.60
2019-04-26T20:04:13.712Z,0.47
2019-04-26T20:06:42.714Z,0.40
2019-04-26T20:09:13.632Z,0.60
2019-04-26T20:11:42.810Z,0.90
2019-04-26T20:14:12.375Z,0.53
2019-04-26T20:16:43.382Z,0.43
2019-04-26T20:19:17.710Z,0.70
2019-04-26T20:21:45.396Z,0.65
2019-04-26T20:24:18.186Z,0.75
2019-04-26T20:26:48.627Z,0.55
2019-04-26T20:29:17.901Z,0.60
2019-04-26T20:32:21.194Z,0.78
2019-04-26T20:35:02.309Z,0.60
2019-04-26T20:37:32.181Z,0.90
2019-04-26T20:40:17.566Z,1.02
2019-04-26T20:42:31.927Z,1.12
2019-04-26T20:45:04.362Z,0.98
2019-04-26T20:47:32.033Z,1.40
2019-04-26T20:50:03.027Z,0.80
2019-04-26T20:52:32.188Z,1.00
2019-04-26T20:55:01.120Z,0.82
2019-04-26T20:57:34.564Z,1.05
2019-04-26T21:00:05.486Z,0.75
2019-04-26T21:02:35.031Z,0.82
2019-04-26T21:05:06.138Z,0.90
2019-04-26T21:07:35.175Z,1.25
2019-04-26T21:10:05.445Z,1.25
2019-04-26T21:12:34.575Z,1.00
2019-04-26T21:15:03.705Z,1.15
2019-04-26T21:17:32.609Z,1.00
2019-04-26T21:20:03.398Z,1.00
2019-04-26T21:22:32.296Z,1.42
2019-04-26T21:25:06.314Z,1.00
2019-04-26T21:27:46.274Z,1.20
2019-04-26T21:30:38.660Z,1.17
2019-04-26T21:33:23.978Z,1.22
2019-04-26T21:36:02.094Z,1.15
2019-04-26T21:38:39.852Z,1.20
2019-04-26T21:41:18.451Z,1.25
2019-04-26T21:43:47.390Z,1.20
2019-04-26T21:46:19.225Z,1.17
2019-04-26T21:48:47.097Z,1.10
2019-04-26T21:51:17.371Z,1.55
2019-04-26T21:53:46.398Z,1.40
2019-04-26T21:56:15.404Z,0.95
2019-04-26T21:58:46.161Z,1.27
2019-04-26T22:01:19.589Z,1.40
2019-04-26T22:03:54.485Z,1.22
2019-04-26T22:06:19.811Z,1.70
2019-04-26T22:09:21.460Z,2.08
2019-04-26T22:11:53.916Z,1.98
2019-04-26T22:14:24.396Z,1.87
2019-04-26T22:17:17.478Z,1.92
2019-04-26T22:19:56.787Z,1.67
2019-04-26T22:22:37.246Z,1.92
2019-04-26T22:25:03.850Z,2.05
2019-04-26T22:27:33.018Z,1.50
2019-04-26T22:30:03.288Z,1.57
2019-04-26T22:32:33.370Z,2.40
2019-04-26T22:35:03.200Z,1.52
2019-04-26T22:37:33.743Z,2.00
2019-04-26T22:40:03.680Z,1.77
2019-04-26T22:42:40.359Z,1.98
2019-04-26T22:45:17.243Z,1.92
2019-04-26T22:47:53.599Z,1.70
2019-04-26T22:50:25.025Z,1.98
2019-04-26T22:52:54.850Z,2.08
2019-04-26T22:55:27.432Z,1.92
2019-04-26T22:57:54.663Z,2.10
2019-04-26T23:00:29.348Z,1.30
2019-04-26T23:02:58.125Z,1.87
2019-04-26T23:05:30.579Z,1.60
2019-04-26T23:07:59.322Z,1.80
2019-04-26T23:10:33.938Z,2.00
2019-04-26T23:13:08.186Z,1.57
2019-04-26T23:15:44.987Z,1.98
2019-04-26T23:18:33.509Z,1.95
2019-04-26T23:21:11.983Z,2.30
2019-04-26T23:23:40.942Z,1.80
2019-04-26T23:26:10.187Z,2.00
2019-04-26T23:28:39.366Z,2.20
2019-04-26T23:31:09.232Z,2.25
2019-04-26T23:33:38.544Z,1.92
2019-04-26T23:36:07.500Z,1.80
2019-04-26T23:38:37.622Z,1.67
2019-04-26T23:41:07.396Z,2.37
2019-04-26T23:43:36.859Z,1.95
2019-04-26T23:46:05.891Z,2.55
2019-04-26T23:48:34.834Z,2.42
2019-04-26T23:51:05.040Z,2.02
2019-04-26T23:53:35.888Z,2.05
2019-04-26T23:56:05.203Z,2.30
2019-04-26T23:58:35.060Z,2.00
